Time;durP1;ratioP1;P1;durP2;ratioP2;P2;SDS_P1;SDS_P2;PMS_P1;PMS_P2;Temp;Humidity;BMP_temperature;BMP_pressure;BME280_temperature;BME280_humidity;BME280_pressure;Samples;Min_cycle;Max_cycle;Signal;HPM_P1;HPM_P2
2020/12/11 00:00:28;;;;;;;;;14.50;14.50;;;;;;;;5042374;28;11565;-83
2020/12/11 00:02:55;;;;;;;;;11.50;11.50;;;;;;;;5051589;28;11672;-81
2020/12/11 00:05:22;;;;;;;;;11.50;11.50;;;;;;;;5050406;28;11619;-81
2020/12/11 00:07:49;;;;;;;;;16.25;13.50;;;;;;;;5048660;28;11576;-80
2020/12/11 00:10:16;;;;;;;;;14.00;13.50;;;;;;;;5045144;28;11609;-80
2020/12/11 00:12:48;;;;;;;;;13.00;11.00;;;;;;;;5048031;28;11592;-83
2020/12/11 00:15:16;;;;;;;;;17.50;15.75;;;;;;;;5043924;28;12481;-82
2020/12/11 00:17:43;;;;;;;;;16.75;15.00;;;;;;;;5047043;28;11560;-83
2020/12/11 00:20:09;;;;;;;;;16.75;16.75;;;;;;;;5045357;28;11688;-83
2020/12/11 00:22:36;;;;;;;;;17.75;11.75;;;;;;;;5044912;28;11715;-79
2020/12/11 00:25:04;;;;;;;;;13.00;12.00;;;;;;;;5038282;28;11552;-78
2020/12/11 00:27:31;;;;;;;;;16.00;12.25;;;;;;;;5044359;28;11691;-80
2020/12/11 00:29:59;;;;;;;;;14.00;14.00;;;;;;;;5046839;28;11694;-81
2020/12/11 00:32:27;;;;;;;;;13.50;12.00;;;;;;;;5048676;28;11676;-81
2020/12/11 00:34:53;;;;;;;;;18.00;15.25;;;;;;;;5045618;28;11616;-80
2020/12/11 00:37:20;;;;;;;;;9.00;9.00;;;;;;;;5043847;28;11590;-82
2020/12/11 00:39:47;;;;;;;;;18.25;15.75;;;;;;;;5052470;28;11559;-80
2020/12/11 00:42:19;;;;;;;;;12.75;12.00;;;;;;;;5050530;28;12368;-82
2020/12/11 00:44:47;;;;;;;;;12.00;11.25;;;;;;;;5039506;28;11639;-81
2020/12/11 00:47:15;;;;;;;;;16.00;14.50;;;;;;;;5044828;28;11571;-83
2020/12/11 00:49:42;;;;;;;;;11.50;9.00;;;;;;;;5045860;28;11592;-82
2020/12/11 00:52:09;;;;;;;;;15.00;12.25;;;;;;;;5047733;28;11678;-81
2020/12/11 00:54:36;;;;;;;;;20.00;14.00;;;;;;;;5042338;28;11583;-82
2020/12/11 00:57:02;;;;;;;;;15.75;12.00;;;;;;;;5048267;28;11545;-82
2020/12/11 00:59:29;;;;;;;;;18.25;13.50;;;;;;;;5045840;28;11598;-81
2020/12/11 01:01:56;;;;;;;;;15.75;15.00;;;;;;;;5048656;28;11535;-78
2020/12/11 01:04:24;;;;;;;;;18.25;14.50;;;;;;;;5048375;28;12314;-82
2020/12/11 01:06:50;;;;;;;;;12.00;12.00;;;;;;;;5045869;28;11610;-82
2020/12/11 01:09:17;;;;;;;;;14.25;14.25;;;;;;;;5049348;28;11623;-82
2020/12/11 01:11:44;;;;;;;;;17.00;17.00;;;;;;;;5042502;28;11633;-82
2020/12/11 01:14:11;;;;;;;;;13.50;12.00;;;;;;;;5045132;28;11607;-83
2020/12/11 01:16:37;;;;;;;;;15.25;15.00;;;;;;;;5046457;28;11587;-83
2020/12/11 01:19:04;;;;;;;;;14.50;14.50;;;;;;;;5044441;28;11614;-82
2020/12/11 01:21:32;;;;;;;;;13.50;13.50;;;;;;;;5042523;28;11559;-82
2020/12/11 01:23:59;;;;;;;;;17.25;15.00;;;;;;;;5048407;28;11583;-80
2020/12/11 01:26:26;;;;;;;;;17.00;15.25;;;;;;;;5056241;28;11603;-81
2020/12/11 01:28:53;;;;;;;;;20.50;16.25;;;;;;;;5043612;28;11603;-81
2020/12/11 01:31:20;;;;;;;;;13.00;13.00;;;;;;;;5075231;28;11547;-81
2020/12/11 01:33:49;;;;;;;;;17.25;12.75;;;;;;;;5045441;28;11580;-83
2020/12/11 01:36:23;;;;;;;;;9.00;9.00;;;;;;;;5046217;28;11598;-82
2020/12/11 01:38:51;;;;;;;;;22.25;14.50;;;;;;;;5045027;28;11535;-85
2020/12/11 01:41:18;;;;;;;;;19.75;12.75;;;;;;;;5045612;28;11591;-85
2020/12/11 01:43:45;;;;;;;;;30.25;20.25;;;;;;;;5047140;28;11566;-85
2020/12/11 01:46:15;;;;;;;;;19.50;18.00;;;;;;;;5043112;28;11624;-82
2020/12/11 01:48:43;;;;;;;;;16.25;15.50;;;;;;;;5050755;28;11563;-83
2020/12/11 01:51:10;;;;;;;;;20.50;16.75;;;;;;;;5044396;28;11570;-84
2020/12/11 01:53:37;;;;;;;;;22.75;20.00;;;;;;;;5055521;28;11597;-83
2020/12/11 01:56:07;;;;;;;;;20.50;18.75;;;;;;;;5053427;28;11598;-84
2020/12/11 01:58:35;;;;;;;;;21.75;19.75;;;;;;;;5042833;28;11618;-83
2020/12/11 02:01:03;;;;;;;;;26.75;20.25;;;;;;;;5037963;28;11567;-83
2020/12/11 02:03:30;;;;;;;;;19.75;16.50;;;;;;;;5045711;28;11617;-83
2020/12/11 02:05:57;;;;;;;;;3.00;1.25;;;;;;;;5051222;28;11608;-80
2020/12/11 02:08:24;;;;;;;;;22.25;21.50;;;;;;;;5050410;28;11540;-83
2020/12/11 02:10:51;;;;;;;;;29.25;19.00;;;;;;;;5050684;28;11612;-83
2020/12/11 02:13:19;;;;;;;;;23.75;19.75;;;;;;;;5048575;28;11600;-83
2020/12/11 02:15:46;;;;;;;;;18.75;16.75;;;;;;;;5046644;28;11719;-82
2020/12/11 02:18:13;;;;;;;;;18.75;18.75;;;;;;;;5046667;28;11574;-81
2020/12/11 02:20:40;;;;;;;;;20.00;18.75;;;;;;;;5045886;28;11610;-82
2020/12/11 02:23:08;;;;;;;;;24.00;18.25;;;;;;;;5049758;28;11585;-81
2020/12/11 02:25:35;;;;;;;;;16.00;16.00;;;;;;;;5029484;28;11595;-81
2020/12/11 02:28:02;;;;;;;;;23.50;19.00;;;;;;;;5049316;28;11560;-81
2020/12/11 02:30:29;;;;;;;;;15.00;15.00;;;;;;;;5055778;28;11502;-81
2020/12/11 02:32:56;;;;;;;;;20.00;16.25;;;;;;;;5047085;28;11615;-82
2020/12/11 02:35:22;;;;;;;;;16.50;16.50;;;;;;;;5047102;28;11576;-81
2020/12/11 02:37:49;;;;;;;;;17.75;15.50;;;;;;;;5046780;28;11572;-83
2020/12/11 02:40:17;;;;;;;;;21.75;20.50;;;;;;;;5057014;28;11572;-83
2020/12/11 02:42:44;;;;;;;;;17.50;17.50;;;;;;;;5046769;28;11600;-83
2020/12/11 02:45:11;;;;;;;;;23.50;16.00;;;;;;;;5047970;28;11591;-84
2020/12/11 02:47:38;;;;;;;;;18.50;18.50;;;;;;;;5047208;28;11562;-82
2020/12/11 02:50:05;;;;;;;;;22.50;18.25;;;;;;;;5048363;28;11627;-80
2020/12/11 02:52:31;;;;;;;;;20.00;20.00;;;;;;;;5048633;28;12285;-82
2020/12/11 02:54:59;;;;;;;;;21.00;20.25;;;;;;;;5046465;28;11600;-82
2020/12/11 02:57:26;;;;;;;;;17.00;17.00;;;;;;;;5049781;28;11610;-83
2020/12/11 02:59:53;;;;;;;;;19.00;16.50;;;;;;;;5042213;28;11622;-82
2020/12/11 03:02:20;;;;;;;;;15.25;13.25;;;;;;;;5053493;28;11546;-82
2020/12/11 03:04:47;;;;;;;;;23.75;22.50;;;;;;;;5049080;28;11640;-81
2020/12/11 03:07:14;;;;;;;;;18.25;17.50;;;;;;;;5045854;28;11576;-82
2020/12/11 03:09:41;;;;;;;;;22.00;19.50;;;;;;;;5046677;28;11590;-81
2020/12/11 03:12:08;;;;;;;;;20.50;16.75;;;;;;;;5048328;28;11625;-84
2020/12/11 03:14:36;;;;;;;;;18.75;14.75;;;;;;;;5051405;28;11710;-84
2020/12/11 03:17:03;;;;;;;;;19.25;16.50;;;;;;;;5045394;28;12371;-83
2020/12/11 03:19:30;;;;;;;;;20.50;19.25;;;;;;;;5044484;28;11659;-82
2020/12/11 03:21:57;;;;;;;;;20.75;16.00;;;;;;;;5046105;28;11614;-83
2020/12/11 03:24:24;;;;;;;;;16.50;14.25;;;;;;;;5046118;28;11706;-83
2020/12/11 03:26:51;;;;;;;;;18.00;17.75;;;;;;;;5045909;28;11573;-83
2020/12/11 03:29:17;;;;;;;;;25.50;20.00;;;;;;;;5047411;28;11617;-82
2020/12/11 03:31:45;;;;;;;;;20.50;18.50;;;;;;;;5053903;28;11564;-82
2020/12/11 03:34:12;;;;;;;;;20.50;18.00;;;;;;;;5050129;28;11645;-83
2020/12/11 03:36:39;;;;;;;;;20.00;18.50;;;;;;;;5050630;28;11608;-84
2020/12/11 03:39:06;;;;;;;;;21.50;20.75;;;;;;;;5045318;28;11619;-82
2020/12/11 03:41:32;;;;;;;;;21.50;21.50;;;;;;;;5049084;28;11598;-83
2020/12/11 03:43:59;;;;;;;;;17.50;17.00;;;;;;;;5042267;28;11626;-80
2020/12/11 03:46:26;;;;;;;;;24.00;18.75;;;;;;;;5035358;28;11574;-80
2020/12/11 03:48:54;;;;;;;;;23.25;21.50;;;;;;;;5044142;28;11599;-80
2020/12/11 03:51:22;;;;;;;;;24.50;20.50;;;;;;;;5044208;28;11600;-81
2020/12/11 03:53:49;;;;;;;;;20.25;19.00;;;;;;;;5044528;28;11706;-80
2020/12/11 03:56:16;;;;;;;;;25.00;21.50;;;;;;;;5043794;28;11643;-82
2020/12/11 03:58:43;;;;;;;;;23.75;21.00;;;;;;;;5045068;28;11743;-80
2020/12/11 04:01:11;;;;;;;;;27.75;19.25;;;;;;;;5043709;28;11552;-82
2020/12/11 04:03:38;;;;;;;;;25.50;21.50;;;;;;;;5045879;28;11637;-80
2020/12/11 04:06:07;;;;;;;;;20.75;19.25;;;;;;;;5045100;28;11560;-81
2020/12/11 04:08:35;;;;;;;;;26.25;21.00;;;;;;;;5044046;28;11636;-82
2020/12/11 04:11:05;;;;;;;;;25.50;18.00;;;;;;;;5045485;28;11572;-82
2020/12/11 04:13:32;;;;;;;;;21.75;19.00;;;;;;;;5042524;28;12018;-82
2020/12/11 04:15:59;;;;;;;;;20.75;19.50;;;;;;;;5043302;28;11575;-81
2020/12/11 04:18:26;;;;;;;;;19.50;16.25;;;;;;;;5043050;28;11586;-81
2020/12/11 04:20:53;;;;;;;;;25.50;17.75;;;;;;;;5044473;28;12475;-81
2020/12/11 04:23:20;;;;;;;;;21.75;19.75;;;;;;;;5042810;28;11571;-82
2020/12/11 04:25:47;;;;;;;;;19.00;18.00;;;;;;;;5043925;28;11627;-80
2020/12/11 04:28:14;;;;;;;;;19.25;18.00;;;;;;;;5043531;28;11657;-83
2020/12/11 04:30:41;;;;;;;;;20.00;19.50;;;;;;;;5042334;28;11492;-83
2020/12/11 04:33:08;;;;;;;;;22.50;19.00;;;;;;;;5043884;28;11603;-83
2020/12/11 04:35:35;;;;;;;;;19.00;19.00;;;;;;;;5042685;28;11607;-82
2020/12/11 04:38:02;;;;;;;;;19.25;17.00;;;;;;;;5044256;28;11554;-83
2020/12/11 04:40:30;;;;;;;;;17.75;13.75;;;;;;;;5043591;28;11643;-83
2020/12/11 04:42:57;;;;;;;;;25.25;23.00;;;;;;;;5044807;28;11611;-82
2020/12/11 04:45:24;;;;;;;;;15.00;15.00;;;;;;;;5043958;28;12355;-81
2020/12/11 04:47:51;;;;;;;;;15.75;15.75;;;;;;;;5042899;28;11603;-82
2020/12/11 04:50:19;;;;;;;;;17.00;15.25;;;;;;;;5041999;28;11554;-82
2020/12/11 04:52:47;;;;;;;;;15.00;15.00;;;;;;;;5042851;28;11561;-82
2020/12/11 04:55:15;;;;;;;;;10.00;10.00;;;;;;;;5044061;28;11559;-81
2020/12/11 04:57:47;;;;;;;;;13.75;13.75;;;;;;;;5042706;28;11502;-81
2020/12/11 05:00:14;;;;;;;;;16.00;16.00;;;;;;;;5043700;28;11517;-81
2020/12/11 05:02:41;;;;;;;;;14.00;14.00;;;;;;;;5043661;28;11524;-81
2020/12/11 05:05:09;;;;;;;;;17.75;15.00;;;;;;;;5043030;28;11547;-81
2020/12/11 05:07:36;;;;;;;;;14.00;14.00;;;;;;;;5042911;28;11535;-81
2020/12/11 05:10:05;;;;;;;;;18.00;13.25;;;;;;;;5041830;28;12289;-82
2020/12/11 05:12:33;;;;;;;;;14.75;14.00;;;;;;;;5041673;28;11581;-75
2020/12/11 05:15:02;;;;;;;;;20.25;16.75;;;;;;;;5042928;28;11499;-80
2020/12/11 05:17:30;;;;;;;;;13.75;13.75;;;;;;;;5047446;28;11516;-79
2020/12/11 05:19:58;;;;;;;;;11.50;11.00;;;;;;;;5045218;28;11904;-80
2020/12/11 05:22:26;;;;;;;;;12.75;12.75;;;;;;;;5045213;28;11514;-78
2020/12/11 05:24:54;;;;;;;;;14.75;9.50;;;;;;;;5057031;28;12324;-77
2020/12/11 05:27:32;;;;;;;;;14.00;12.25;;;;;;;;5045154;28;11504;-78
2020/12/11 05:30:01;;;;;;;;;10.50;6.50;;;;;;;;5052783;28;11529;-77
2020/12/11 05:32:39;;;;;;;;;7.25;6.75;;;;;;;;5053419;28;11473;-79
2020/12/11 05:35:08;;;;;;;;;8.00;8.00;;;;;;;;5045427;28;11522;-78
2020/12/11 05:37:47;;;;;;;;;11.50;9.75;;;;;;;;5051226;28;11458;-79
2020/12/11 05:40:18;;;;;;;;;18.50;15.50;;;;;;;;5052422;28;11590;-78
2020/12/11 05:43:00;;;;;;;;;10.25;10.25;;;;;;;;5050295;28;11563;-79
2020/12/11 05:45:28;;;;;;;;;6.00;5.25;;;;;;;;5047553;28;11527;-79
2020/12/11 05:47:59;;;;;;;;;9.25;9.25;;;;;;;;5048055;28;11527;-78
2020/12/11 05:50:27;;;;;;;;;7.25;7.25;;;;;;;;5043164;28;11462;-79
2020/12/11 05:52:54;;;;;;;;;8.00;8.00;;;;;;;;5042680;28;11649;-80
2020/12/11 05:55:23;;;;;;;;;6.50;6.50;;;;;;;;5043038;28;11501;-78
2020/12/11 05:57:51;;;;;;;;;7.00;6.50;;;;;;;;5072610;28;11252;-79
2020/12/11 06:00:19;;;;;;;;;8.75;5.00;;;;;;;;5042390;28;11474;-80
2020/12/11 06:02:49;;;;;;;;;8.00;7.00;;;;;;;;5041282;28;11459;-82
2020/12/11 06:05:16;;;;;;;;;5.50;5.50;;;;;;;;5041015;28;11520;-79
2020/12/11 06:07:44;;;;;;;;;8.00;6.00;;;;;;;;5052567;28;11211;-85
2020/12/11 06:10:13;;;;;;;;;5.50;5.50;;;;;;;;5046073;28;11243;-81
2020/12/11 06:12:40;;;;;;;;;3.00;3.00;;;;;;;;5048400;28;11149;-79
2020/12/11 06:15:10;;;;;;;;;4.50;2.00;;;;;;;;5045167;28;11155;-77
2020/12/11 06:17:39;;;;;;;;;5.00;5.00;;;;;;;;5051483;28;11730;-79
2020/12/11 06:20:07;;;;;;;;;6.25;4.00;;;;;;;;5051692;28;11073;-78
2020/12/11 06:22:35;;;;;;;;;6.75;5.50;;;;;;;;5057051;28;11944;-80
2020/12/11 06:25:27;;;;;;;;;11.00;7.00;;;;;;;;5053844;28;11142;-79
2020/12/11 06:27:54;;;;;;;;;6.50;5.75;;;;;;;;5052905;28;11446;-79
2020/12/11 06:30:27;;;;;;;;;5.25;5.25;;;;;;;;5045697;28;11116;-78
2020/12/11 06:32:53;;;;;;;;;11.50;7.00;;;;;;;;5031924;28;11074;-83
2020/12/11 06:35:21;;;;;;;;;5.75;5.75;;;;;;;;5046067;28;11232;-82
2020/12/11 06:37:48;;;;;;;;;6.25;5.25;;;;;;;;5042173;28;10989;-82
2020/12/11 06:40:15;;;;;;;;;7.00;7.00;;;;;;;;5046206;28;11044;-81
2020/12/11 06:42:46;;;;;;;;;7.25;5.75;;;;;;;;5042173;28;11122;-83
2020/12/11 06:45:24;;;;;;;;;28.00;26.50;;;;;;;;5039408;28;10997;-82
2020/12/11 06:47:53;;;;;;;;;12.50;7.00;;;;;;;;5043559;28;11523;-84
2020/12/11 06:50:23;;;;;;;;;2.75;2.75;;;;;;;;5043985;28;11243;-82
2020/12/11 06:52:50;;;;;;;;;6.50;6.00;;;;;;;;5050939;28;10904;-81
2020/12/11 06:55:16;;;;;;;;;7.50;7.50;;;;;;;;5049739;28;12763;-73
2020/12/11 06:57:45;;;;;;;;;15.25;11.50;;;;;;;;5046283;28;11055;-74
2020/12/11 07:00:32;;;;;;;;;4.00;4.00;;;;;;;;5042260;28;11163;-73
2020/12/11 07:03:20;;;;;;;;;6.50;4.50;;;;;;;;5040883;28;11879;-73
2020/12/11 07:05:57;;;;;;;;;5.75;5.75;;;;;;;;5043490;28;11165;-73
2020/12/11 07:08:24;;;;;;;;;6.25;5.50;;;;;;;;5040367;28;11063;-74
2020/12/11 07:10:51;;;;;;;;;2.75;2.75;;;;;;;;5044297;28;11169;-73
2020/12/11 07:13:17;;;;;;;;;4.25;3.00;;;;;;;;5045531;28;11027;-75
2020/12/11 07:15:44;;;;;;;;;5.25;5.25;;;;;;;;5040276;28;11096;-74
2020/12/11 07:18:15;;;;;;;;;5.25;5.25;;;;;;;;5043898;28;10988;-74
2020/12/11 07:20:48;;;;;;;;;4.50;4.50;;;;;;;;5043107;28;11100;-72
2020/12/11 07:23:17;;;;;;;;;5.00;5.00;;;;;;;;5042506;28;11809;-72
2020/12/11 07:25:43;;;;;;;;;2.00;2.00;;;;;;;;5044307;28;11710;-73
2020/12/11 07:28:10;;;;;;;;;3.75;3.00;;;;;;;;5044344;28;10836;-73
2020/12/11 07:30:37;;;;;;;;;5.50;5.50;;;;;;;;5045335;28;11697;-73
2020/12/11 07:33:04;;;;;;;;;5.75;5.75;;;;;;;;5044861;28;11923;-72
2020/12/11 07:35:36;;;;;;;;;5.75;3.00;;;;;;;;5045744;28;11063;-72
2020/12/11 07:38:04;;;;;;;;;3.00;3.00;;;;;;;;5042105;28;10917;-72
2020/12/11 07:40:30;;;;;;;;;8.50;3.50;;;;;;;;5045057;28;11035;-71
2020/12/11 07:42:57;;;;;;;;;2.75;2.75;;;;;;;;5042548;28;11022;-71
2020/12/11 07:45:26;;;;;;;;;5.75;5.75;;;;;;;;5043451;28;10832;-70
2020/12/11 07:47:54;;;;;;;;;3.00;3.00;;;;;;;;5041860;28;11122;-70
2020/12/11 07:50:22;;;;;;;;;2.00;2.00;;;;;;;;5042916;28;10846;-71
2020/12/11 07:52:51;;;;;;;;;4.50;3.00;;;;;;;;5044745;28;10954;-71
2020/12/11 07:55:20;;;;;;;;;4.50;3.00;;;;;;;;5042359;28;11035;-71
2020/12/11 07:57:54;;;;;;;;;1.50;1.50;;;;;;;;5044337;28;11045;-71
2020/12/11 08:00:22;;;;;;;;;2.25;2.25;;;;;;;;5044000;28;10831;-72
2020/12/11 08:02:53;;;;;;;;;2.00;2.00;;;;;;;;5043243;28;10824;-71
2020/12/11 08:05:22;;;;;;;;;1.75;1.75;;;;;;;;5043653;28;10666;-71
2020/12/11 08:07:50;;;;;;;;;1.00;1.00;;;;;;;;5042520;28;10797;-71
2020/12/11 08:10:18;;;;;;;;;10.25;10.25;;;;;;;;5043523;28;11535;-71
2020/12/11 08:12:47;;;;;;;;;4.00;2.00;;;;;;;;5041976;28;11799;-72
2020/12/11 08:15:31;;;;;;;;;5.75;1.75;;;;;;;;5044645;28;11112;-73
2020/12/11 08:18:08;;;;;;;;;2.00;2.00;;;;;;;;5043228;28;10572;-72
2020/12/11 08:20:49;;;;;;;;;1.00;1.00;;;;;;;;5042121;28;10635;-73
2020/12/11 08:23:24;;;;;;;;;2.00;2.00;;;;;;;;5044589;28;10659;-73
2020/12/11 08:26:08;;;;;;;;;1.50;1.50;;;;;;;;5059761;28;10610;-72
2020/12/11 08:28:36;;;;;;;;;2.50;2.50;;;;;;;;5050280;28;10748;-73
2020/12/11 08:31:22;;;;;;;;;2.00;2.00;;;;;;;;5050888;28;10561;-71
2020/12/11 08:33:50;;;;;;;;;2.00;2.00;;;;;;;;5041419;28;10589;-72
2020/12/11 08:36:27;;;;;;;;;1.00;1.00;;;;;;;;5043633;28;10689;-73
2020/12/11 08:39:08;;;;;;;;;2.00;2.00;;;;;;;;5042665;28;10611;-72
2020/12/11 08:41:39;;;;;;;;;5.00;2.00;;;;;;;;5039777;28;10713;-71
2020/12/11 08:44:14;;;;;;;;;2.25;2.25;;;;;;;;5045791;28;10764;-71
2020/12/11 08:46:55;;;;;;;;;6.00;4.50;;;;;;;;5041586;28;10809;-71
2020/12/11 08:49:24;;;;;;;;;11.25;8.25;;;;;;;;5043839;28;10841;-73
2020/12/11 08:51:51;;;;;;;;;3.25;2.00;;;;;;;;5047024;28;12379;-73
2020/12/11 08:54:27;;;;;;;;;6.00;6.00;;;;;;;;5046425;28;10924;-70
2020/12/11 08:56:54;;;;;;;;;5.75;5.75;;;;;;;;5044898;28;10903;-72
2020/12/11 08:59:22;;;;;;;;;5.00;5.00;;;;;;;;5043576;28;10893;-73
2020/12/11 09:01:49;;;;;;;;;4.00;4.00;;;;;;;;5044522;28;10650;-72
2020/12/11 09:04:16;;;;;;;;;3.50;3.50;;;;;;;;5046417;28;10690;-73
2020/12/11 09:06:44;;;;;;;;;3.00;3.00;;;;;;;;5044330;28;10865;-73
2020/12/11 09:09:11;;;;;;;;;7.00;7.00;;;;;;;;5043764;28;10898;-72
2020/12/11 09:11:38;;;;;;;;;3.50;2.75;;;;;;;;5044766;28;10872;-73
2020/12/11 09:14:05;;;;;;;;;3.50;2.00;;;;;;;;5041259;28;10733;-73
2020/12/11 09:16:33;;;;;;;;;2.25;2.25;;;;;;;;5048092;28;10708;-73
2020/12/11 09:19:00;;;;;;;;;15.75;12.50;;;;;;;;5049093;28;10585;-72
2020/12/11 09:21:28;;;;;;;;;2.00;2.00;;;;;;;;5047956;28;10899;-72
2020/12/11 09:23:55;;;;;;;;;1.00;1.00;;;;;;;;5053094;28;10611;-72
2020/12/11 09:26:23;;;;;;;;;4.50;3.00;;;;;;;;5041933;28;10542;-72
2020/12/11 09:28:55;;;;;;;;;1.75;1.25;;;;;;;;5048488;28;10631;-72
2020/12/11 09:31:23;;;;;;;;;5.00;2.25;;;;;;;;5044638;28;10611;-72
2020/12/11 09:33:50;;;;;;;;;9.50;9.25;;;;;;;;5042949;28;10735;-72
2020/12/11 09:36:17;;;;;;;;;5.00;2.00;;;;;;;;5049037;28;10886;-72
2020/12/11 09:38:44;;;;;;;;;3.00;3.00;;;;;;;;5047072;28;10474;-72
2020/12/11 09:41:14;;;;;;;;;3.00;3.00;;;;;;;;5047425;28;10551;-72
2020/12/11 09:46:36;;;;;;;;;9.00;5.25;;;;;;;;5044379;28;10779;-72
2020/12/11 09:49:07;;;;;;;;;5.00;5.00;;;;;;;;5049991;28;10607;-72
2020/12/11 09:51:54;;;;;;;;;5.25;5.00;;;;;;;;5045444;28;10560;-72
2020/12/11 09:54:24;;;;;;;;;7.25;4.00;;;;;;;;5033955;28;10615;-72
2020/12/11 09:56:51;;;;;;;;;3.00;3.00;;;;;;;;5039817;28;10698;-72
2020/12/11 09:59:21;;;;;;;;;5.75;4.75;;;;;;;;5042844;28;10547;-72
2020/12/11 10:04:30;;;;;;;;;3.00;3.00;;;;;;;;5041718;28;11329;-72
2020/12/11 10:06:57;;;;;;;;;6.00;6.00;;;;;;;;5043340;28;10637;-72
2020/12/11 10:09:24;;;;;;;;;7.50;6.00;;;;;;;;5042388;28;11394;-72
2020/12/11 10:11:52;;;;;;;;;4.50;4.50;;;;;;;;5043680;28;10639;-72
2020/12/11 10:14:37;;;;;;;;;5.50;5.50;;;;;;;;5042271;28;10481;-72
2020/12/11 10:17:04;;;;;;;;;10.75;8.25;;;;;;;;5041642;28;10498;-72
2020/12/11 10:19:31;;;;;;;;;5.00;5.00;;;;;;;;5043472;28;10558;-72
2020/12/11 10:21:58;;;;;;;;;6.00;6.00;;;;;;;;5042736;28;10516;-72
2020/12/11 10:24:25;;;;;;;;;7.50;6.00;;;;;;;;5045243;28;10574;-72
2020/12/11 10:26:52;;;;;;;;;9.25;7.00;;;;;;;;5043535;28;10598;-73
2020/12/11 10:29:19;;;;;;;;;7.75;7.75;;;;;;;;5047578;28;10567;-72
2020/12/11 10:31:46;;;;;;;;;7.50;6.50;;;;;;;;5044047;28;10510;-72
2020/12/11 10:34:14;;;;;;;;;9.50;9.50;;;;;;;;5047020;28;10507;-72
2020/12/11 10:36:42;;;;;;;;;7.50;7.50;;;;;;;;5047896;28;10495;-72
2020/12/11 10:39:10;;;;;;;;;12.25;10.75;;;;;;;;5052392;28;10400;-72
2020/12/11 10:41:36;;;;;;;;;7.75;7.00;;;;;;;;5045129;28;10541;-72
2020/12/11 10:44:04;;;;;;;;;13.00;13.00;;;;;;;;5045603;28;10392;-72
2020/12/11 10:46:31;;;;;;;;;13.75;11.75;;;;;;;;5050815;28;10546;-72
2020/12/11 10:48:57;;;;;;;;;10.25;8.00;;;;;;;;5051020;28;10431;-72
2020/12/11 10:51:24;;;;;;;;;8.00;8.00;;;;;;;;5046860;28;10359;-72
2020/12/11 10:53:52;;;;;;;;;12.00;10.25;;;;;;;;5046553;28;10284;-72
2020/12/11 10:56:20;;;;;;;;;7.75;7.75;;;;;;;;5046123;28;10230;-72
2020/12/11 10:58:46;;;;;;;;;10.00;10.00;;;;;;;;5046188;28;10248;-72
2020/12/11 11:01:13;;;;;;;;;12.75;10.75;;;;;;;;5045210;28;10204;-72
2020/12/11 11:03:41;;;;;;;;;12.00;10.75;;;;;;;;5047181;28;10357;-72
2020/12/11 11:06:14;;;;;;;;;14.25;12.00;;;;;;;;5045391;28;10299;-72
2020/12/11 11:08:50;;;;;;;;;8.50;8.50;;;;;;;;5046628;28;10357;-72
2020/12/11 11:11:21;;;;;;;;;9.50;9.50;;;;;;;;5038053;28;10828;-72
2020/12/11 11:14:04;;;;;;;;;11.50;9.50;;;;;;;;5045865;28;10264;-72
2020/12/11 11:16:46;;;;;;;;;12.25;10.75;;;;;;;;5043692;28;10262;-72
2020/12/11 11:19:18;;;;;;;;;10.50;8.75;;;;;;;;5037943;28;10267;-73
2020/12/11 11:21:57;;;;;;;;;7.25;7.25;;;;;;;;5044501;28;10315;-73
2020/12/11 11:24:42;;;;;;;;;11.00;11.00;;;;;;;;5044927;28;10310;-72
2020/12/11 11:27:17;;;;;;;;;11.00;11.00;;;;;;;;5044399;28;10263;-72
2020/12/11 11:29:44;;;;;;;;;10.00;10.00;;;;;;;;5045522;28;10112;-73
2020/12/11 11:32:11;;;;;;;;;9.75;8.75;;;;;;;;5049100;28;10376;-74
2020/12/11 11:34:41;;;;;;;;;11.00;8.00;;;;;;;;5047543;28;10448;-72
2020/12/11 11:37:07;;;;;;;;;7.00;7.00;;;;;;;;5065875;28;10269;-72
2020/12/11 11:39:34;;;;;;;;;10.75;9.75;;;;;;;;5054409;28;11056;-71
2020/12/11 11:42:01;;;;;;;;;6.50;6.50;;;;;;;;5054385;28;10188;-72
2020/12/11 11:44:52;;;;;;;;;7.00;7.00;;;;;;;;5050254;28;10958;-72
2020/12/11 11:47:20;;;;;;;;;4.75;4.25;;;;;;;;5043178;28;10141;-72
2020/12/11 11:50:03;;;;;;;;;4.75;4.75;;;;;;;;5047143;28;10174;-72
2020/12/11 11:52:33;;;;;;;;;6.00;3.25;;;;;;;;5043169;28;10049;-73
2020/12/11 11:55:00;;;;;;;;;5.25;5.25;;;;;;;;5044015;28;9875;-73
2020/12/11 11:57:27;;;;;;;;;2.75;2.75;;;;;;;;5041717;28;9973;-74
2020/12/11 11:59:55;;;;;;;;;6.50;5.50;;;;;;;;5042999;28;9799;-74
2020/12/11 12:02:22;;;;;;;;;5.00;4.25;;;;;;;;5042764;28;9844;-73
2020/12/11 12:04:49;;;;;;;;;3.00;3.00;;;;;;;;5043438;28;9792;-72
2020/12/11 12:07:15;;;;;;;;;3.00;3.00;;;;;;;;5042730;28;9908;-73
2020/12/11 12:09:42;;;;;;;;;6.00;6.00;;;;;;;;5045117;28;10068;-73
2020/12/11 12:12:10;;;;;;;;;5.50;5.50;;;;;;;;5042216;28;9950;-74
2020/12/11 12:14:38;;;;;;;;;3.75;3.75;;;;;;;;5043862;28;9804;-74
2020/12/11 12:17:07;;;;;;;;;3.50;3.50;;;;;;;;5042583;28;9853;-73
2020/12/11 12:19:36;;;;;;;;;6.50;6.25;;;;;;;;5043047;28;9858;-73
2020/12/11 12:27:47;;;;;;;;;7.00;7.00;;;;;;;;5043017;28;9861;-73
2020/12/11 12:30:14;;;;;;;;;7.00;7.00;;;;;;;;5047205;28;9827;-73
2020/12/11 12:33:01;;;;;;;;;7.50;6.25;;;;;;;;5044010;28;10095;-74
2020/12/11 12:35:37;;;;;;;;;13.50;13.50;;;;;;;;5035804;28;10861;-74
2020/12/11 12:38:04;;;;;;;;;6.50;6.25;;;;;;;;5040242;28;10253;-73
2020/12/11 12:43:21;;;;;;;;;7.00;7.00;;;;;;;;5016236;28;9946;-73
2020/12/11 12:45:48;;;;;;;;;12.25;7.50;;;;;;;;5043077;28;9963;-73
2020/12/11 12:48:16;;;;;;;;;6.50;6.25;;;;;;;;5043096;28;9931;-74
2020/12/11 12:50:43;;;;;;;;;5.00;5.00;;;;;;;;5042285;28;10693;-73
2020/12/11 12:53:10;;;;;;;;;4.50;4.50;;;;;;;;5044325;28;10009;-73
2020/12/11 12:55:44;;;;;;;;;4.00;4.00;;;;;;;;5041463;28;9658;-75
2020/12/11 12:58:14;;;;;;;;;8.25;5.50;;;;;;;;5037072;28;9785;-73
2020/12/11 13:03:57;;;;;;;;;6.75;4.00;;;;;;;;5041558;28;10353;-73
2020/12/11 13:06:24;;;;;;;;;3.00;3.00;;;;;;;;5044705;28;9631;-73
2020/12/11 13:08:50;;;;;;;;;6.00;3.00;;;;;;;;5043666;28;9647;-73
2020/12/11 13:11:17;;;;;;;;;3.00;3.00;;;;;;;;5043850;28;9639;-73
2020/12/11 13:13:44;;;;;;;;;3.00;3.00;;;;;;;;5044048;28;9532;-73
2020/12/11 13:16:11;;;;;;;;;5.00;5.00;;;;;;;;5042928;28;9506;-74
2020/12/11 13:18:39;;;;;;;;;6.25;5.50;;;;;;;;5044400;28;9527;-74
2020/12/11 13:21:10;;;;;;;;;8.00;6.00;;;;;;;;5042831;28;9779;-73
2020/12/11 13:26:32;;;;;;;;;9.50;8.75;;;;;;;;5031384;28;9578;-73
2020/12/11 13:28:59;;;;;;;;;7.00;7.00;;;;;;;;5043030;28;9772;-74
2020/12/11 13:31:26;;;;;;;;;6.33;6.33;;;;;;;;5043311;28;10206;-74
2020/12/11 13:33:54;;;;;;;;;3.00;3.00;;;;;;;;5042983;28;9345;-74
2020/12/11 13:36:21;;;;;;;;;6.00;6.00;;;;;;;;5044237;28;9424;-73
2020/12/11 13:38:47;;;;;;;;;6.33;3.33;;;;;;;;5043354;28;9192;-73
2020/12/11 13:41:14;;;;;;;;;4.67;3.00;;;;;;;;5042398;28;9156;-73
2020/12/11 13:43:41;;;;;;;;;3.00;3.00;;;;;;;;5043409;28;9012;-73
2020/12/11 13:46:08;;;;;;;;;2.00;2.00;;;;;;;;5042842;28;9109;-73
2020/12/11 13:48:35;;;;;;;;;4.00;4.00;;;;;;;;5042161;28;9236;-73
2020/12/11 13:51:03;;;;;;;;;7.00;6.00;;;;;;;;5042602;28;9267;-73
2020/12/11 13:53:29;;;;;;;;;9.00;8.00;;;;;;;;5043590;28;9210;-73
2020/12/11 13:55:58;;;;;;;;;5.67;5.00;;;;;;;;5042467;28;9438;-73
2020/12/11 13:58:25;;;;;;;;;4.00;4.00;;;;;;;;5043493;28;9338;-73
2020/12/11 14:00:51;;;;;;;;;7.00;7.00;;;;;;;;5042527;28;9119;-73
2020/12/11 14:03:18;;;;;;;;;8.00;6.67;;;;;;;;5042852;28;9363;-73
2020/12/11 14:05:46;;;;;;;;;4.00;4.00;;;;;;;;5043967;28;9430;-73
2020/12/11 14:08:14;;;;;;;;;9.00;8.00;;;;;;;;5041943;28;9457;-73
2020/12/11 14:10:43;;;;;;;;;9.75;8.75;;;;;;;;5050108;28;9344;-73
2020/12/11 14:13:10;;;;;;;;;9.00;9.00;;;;;;;;5049980;28;9781;-73
2020/12/11 14:15:37;;;;;;;;;12.25;9.75;;;;;;;;5052007;28;9500;-73
2020/12/11 14:18:20;;;;;;;;;8.33;8.33;;;;;;;;5047344;28;9489;-73
2020/12/11 14:23:35;;;;;;;;;9.00;7.33;;;;;;;;5060229;28;9251;-73
2020/12/11 14:26:01;;;;;;;;;8.00;8.00;;;;;;;;5044036;28;9411;-74
2020/12/11 14:28:29;;;;;;;;;8.33;8.33;;;;;;;;5043717;28;9402;-73
2020/12/11 14:30:56;;;;;;;;;4.00;4.00;;;;;;;;5046186;28;9346;-74
2020/12/11 14:33:22;;;;;;;;;8.00;8.00;;;;;;;;5062842;28;9281;-74
2020/12/11 14:35:49;;;;;;;;;10.33;9.67;;;;;;;;5045118;28;9269;-74
2020/12/11 14:38:31;;;;;;;;;11.67;11.67;;;;;;;;5042626;28;9330;-73
2020/12/11 14:40:58;;;;;;;;;9.33;8.00;;;;;;;;5045934;28;9276;-73
2020/12/11 14:43:31;;;;;;;;;10.00;10.00;;;;;;;;5043097;28;9095;-73
2020/12/11 14:46:00;;;;;;;;;8.00;8.00;;;;;;;;5043436;28;9208;-73
2020/12/11 14:48:27;;;;;;;;;5.33;4.67;;;;;;;;5040027;28;9390;-74
2020/12/11 14:50:54;;;;;;;;;8.00;5.67;;;;;;;;5054233;28;9274;-73
2020/12/11 14:53:21;;;;;;;;;6.00;6.00;;;;;;;;5042628;28;9239;-73
2020/12/11 14:55:48;;;;;;;;;6.00;6.00;;;;;;;;5041632;28;9267;-73
2020/12/11 14:58:16;;;;;;;;;9.00;7.67;;;;;;;;5042893;28;9197;-73
2020/12/11 15:00:44;;;;;;;;;15.50;12.75;;;;;;;;5041698;28;9300;-73
2020/12/11 15:03:11;;;;;;;;;10.00;10.00;;;;;;;;5042866;28;9728;-73
2020/12/11 15:05:38;;;;;;;;;6.00;6.00;;;;;;;;5042030;28;9378;-74